Flight Track Log - Related Links

Times and Time Zones

All times are in EDT time to prevent confusion due to time zone crossing. See the UAL3741 flight status page for this flight to view local times or setup timezone preferences in your user account.

Time Position Orientation Groundspeed Altitude Reporting Facility
EDT Latitude Longitude Course Direction KTS MPH feet Rate Location/Type
Wed 07:31:30 AM 29.5522 -98.4436 North 171 197 1,900  Level Houston Center
Wed 07:32:18 AM 29.5856 -98.4156 36° Northeast 211 243 3,600 2,348 Climbing Houston Center
Wed 07:33:02 AM 29.6311 -98.3908 25° Northeast 237 273 5,500 2,459 Climbing Houston Center
Wed 07:33:19 AM 29.6483 -98.3911 359° North 269 310 6,100 2,361 Climbing Houston Center
Wed 07:34:03 AM 29.7092 -98.3917 360° North 279 321 7,900 2,900 Climbing Houston Center
Wed 07:34:19 AM 29.7367 -98.3925 358° North 306 352 9,000 3,148 Climbing Houston Center
Wed 07:35:00 AM 30.0862 -98.3833 North  Level FlightAware Approximate
Wed 07:35:04 AM 29.7917 -98.3917 North 294 338 11,100  Level Houston Center
Wed 07:36:00 AM 30.1949 -98.3626 North  Level FlightAware Approximate
Wed 07:36:05 AM 29.8750 -98.3914 360° North 301 346 13,000  Level Houston Center
Wed 07:37:06 AM 29.9775 -98.3922 360° North 341 392 14,700 2,213 Climbing Houston Center
Wed 07:38:07 AM 30.0706 -98.3919 360° North 335 386 17,500 2,361 Climbing Houston Center
Wed 07:39:08 AM 30.1647 -98.3575 18° North 358 412 19,500 2,016 Climbing Houston Center
Wed 07:40:09 AM 30.2611 -98.3186 19° North 365 420 21,600 2,066 Climbing Houston Center
Wed 07:41:10 AM 30.3642 -98.2761 20° North 380 437 23,700 1,756 Climbing Houston Center
Wed 07:42:12 AM 30.4664 -98.2328 20° North 384 442 25,200 1,463 Climbing Houston Center
Wed 07:43:13 AM 30.5736 -98.1878 20° North 399 459 26,700 1,475 Climbing Houston Center
Wed 07:44:14 AM 30.6825 -98.1419 20° North 408 470 28,200 1,377 Climbing Houston Center
Wed 07:45:15 AM 30.7936 -98.0950 20° North 415 478 29,500 1,350 Climbing Houston Center
Wed 07:46:14 AM 30.9069 -98.0478 20° North 410 472 30,900 1,462 Climbing Fort Worth Center
Wed 07:47:14 AM 31.0178 -98.0022 19° North 415 478 32,400 1,350 Climbing Fort Worth Center
Wed 07:48:14 AM 31.1181 -97.9592 20° North 415 478 33,600 1,250 Climbing Fort Worth Center
Wed 07:49:14 AM 31.2269 -97.9114 21° North 415 478 34,900 1,300 Climbing Fort Worth Center
Wed 07:50:14 AM 31.3378 -97.8658 19° North 410 472 36,200 1,050 Climbing Fort Worth Center
Wed 07:51:14 AM 31.4444 -97.8175 21° North 410 472 37,000 1,300 Climbing Fort Worth Center
Wed 07:52:14 AM 31.5508 -97.7717 20° North 405 466 38,800 1,000 Climbing Fort Worth Center
Wed 07:53:14 AM 31.6617 -97.7233 20° North 400 460 39,000 100 Climbing Fort Worth Center
Wed 07:54:14 AM 31.7683 -97.6797 19° North 400 460 39,000  Level Fort Worth Center
Wed 07:55:14 AM 31.8769 -97.6239 24° Northeast 407 468 39,000  Level Fort Worth Center
Wed 07:56:14 AM 31.9647 -97.5578 33° Northeast 418 481 39,000  Level Fort Worth Center
Wed 07:57:14 AM 32.0756 -97.4747 32° Northeast 418 481 39,000  Level Fort Worth Center
Wed 07:58:14 AM 32.1675 -97.4086 31° Northeast 423 487 39,000  Level Fort Worth Center
Wed 07:59:14 AM 32.2800 -97.3275 31° Northeast 428 493 39,000  Level Fort Worth Center
Wed 08:00:14 AM 32.3739 -97.2583 32° Northeast 435 501 39,000  Level Fort Worth Center
Wed 08:01:14 AM 32.4867 -97.1769 31° Northeast 435 501 39,000  Level Fort Worth Center
Wed 08:02:14 AM 32.5783 -97.1078 32° Northeast 429 494 39,000  Level Fort Worth Center
Wed 08:03:14 AM 32.6908 -97.0258 32° Northeast 434 499 39,000  Level Fort Worth Center
Wed 08:04:14 AM 32.7844 -96.9539 33° Northeast 434 499 39,000  Level Fort Worth Center
Wed 08:05:14 AM 32.8947 -96.8717 32° Northeast 434 499 39,000  Level Fort Worth Center
Wed 08:06:14 AM 32.9886 -96.8092 29° Northeast 428 493 39,000  Level Fort Worth Center
Wed 08:07:14 AM 33.1069 -96.7264 30° Northeast 428 493 39,000  Level Fort Worth Center
Wed 08:08:14 AM 33.2006 -96.6536 33° Northeast 438 504 39,000  Level Fort Worth Center
Wed 08:09:14 AM 33.3022 -96.5733 33° Northeast 438 504 39,000  Level Fort Worth Center
Wed 08:10:14 AM 33.4125 -96.4878 33° Northeast 433 498 39,000  Level Fort Worth Center
Wed 08:11:14 AM 33.5036 -96.4169 33° Northeast 433 498 39,000  Level Fort Worth Center
Wed 08:12:14 AM 33.6197 -96.3308 32° Northeast 433 498 39,000  Level Fort Worth Center
Wed 08:13:14 AM 33.7111 -96.2622 32° Northeast 433 498 39,000  Level Fort Worth Center
Wed 08:14:14 AM 33.8167 -96.1833 32° Northeast 433 498 39,000  Level Fort Worth Center
Wed 08:15:14 AM 33.9244 -96.0969 34° Northeast 433 498 39,000  Level Fort Worth Center
Wed 08:16:14 AM 34.0300 -96.0175 32° Northeast 438 504 39,000  Level Fort Worth Center
Wed 08:17:14 AM 34.1314 -95.9381 33° Northeast 438 504 39,000  Level Fort Worth Center
Wed 08:18:14 AM 34.2347 -95.8561 33° Northeast 433 498 39,000  Level Fort Worth Center
Wed 08:19:14 AM 34.3381 -95.7786 32° Northeast 433 498 39,000  Level Fort Worth Center
Wed 08:20:14 AM 34.4433 -95.6986 32° Northeast 438 504 39,000  Level Fort Worth Center
Wed 08:21:14 AM 34.5444 -95.6158 34° Northeast 438 504 39,000  Level Fort Worth Center
Wed 08:22:14 AM 34.6417 -95.5508 29° Northeast 443 510 39,000  Level Fort Worth Center
Wed 08:23:49 AM 34.8075 -95.4150 34° Northeast 440 506 39,000  Level Kansas City Center
Wed 08:24:50 AM 34.9125 -95.3322 33° Northeast 446 513 39,000  Level Kansas City Center
Wed 08:25:56 AM 35.0369 -95.2392 31° Northeast 449 517 39,000  Level Memphis Center
Wed 08:26:56 AM 35.1383 -95.1561 34° Northeast 444 511 39,000  Level Memphis Center
Wed 08:27:56 AM 35.2458 -95.0708 33° Northeast 444 511 39,000  Level Memphis Center
Wed 08:28:56 AM 35.3492 -94.9875 33° Northeast 444 511 39,000  Level Memphis Center
Wed 08:29:56 AM 35.4522 -94.9064 33° Northeast 444 511 39,000  Level Memphis Center
Wed 08:30:56 AM 35.5553 -94.8228 33° Northeast 444 511 39,000  Level Memphis Center
Wed 08:31:56 AM 35.6583 -94.7389 33° Northeast 444 511 39,000  Level Memphis Center
Wed 08:32:56 AM 35.7636 -94.6550 33° Northeast 444 511 39,000  Level Memphis Center
Wed 08:33:56 AM 35.8664 -94.5706 34° Northeast 444 511 39,000  Level Memphis Center
Wed 08:34:56 AM 35.9694 -94.4861 34° Northeast 444 511 39,000  Level Memphis Center
Wed 08:35:56 AM 36.0722 -94.4014 34° Northeast 444 511 39,000  Level Memphis Center
Wed 08:38:09 AM 36.2961 -94.2211 33° Northeast 439 505 39,000  Level Kansas City Center
Wed 08:39:10 AM 36.3986 -94.1369 33° Northeast 440 506 39,000  Level Kansas City Center
Wed 08:40:12 AM 36.5003 -94.0536 33° Northeast 440 506 39,000  Level Kansas City Center
Wed 08:41:13 AM 36.6019 -93.9694 34° Northeast 440 506 39,000  Level Kansas City Center
Wed 08:42:15 AM 36.7033 -93.8853 34° Northeast 439 505 39,000  Level Kansas City Center
Wed 08:43:16 AM 36.8050 -93.8006 34° Northeast 439 505 39,000  Level Kansas City Center
Wed 08:44:18 AM 36.9294 -93.6978 33° Northeast 442 509 39,000  Level Kansas City Center
Wed 08:45:19 AM 37.0306 -93.6133 34° Northeast 438 504 39,000  Level Kansas City Center
Wed 08:46:20 AM 37.1311 -93.5256 35° Northeast 439 505 39,000  Level Kansas City Center
Wed 08:47:22 AM 37.2325 -93.4394 34° Northeast 438 504 39,000  Level Kansas City Center
Wed 08:48:23 AM 37.3350 -93.3522 34° Northeast 440 506 39,000  Level Kansas City Center
Wed 08:49:25 AM 37.4358 -93.2642 35° Northeast 440 506 39,000  Level Kansas City Center
Wed 08:50:26 AM 37.5331 -93.1731 37° Northeast 437 503 39,000  Level Kansas City Center
Wed 08:51:28 AM 37.6342 -93.0811 36° Northeast 443 510 39,000  Level Kansas City Center
Wed 08:52:29 AM 37.7317 -92.9889 37° Northeast 441 507 39,000  Level Kansas City Center
Wed 08:53:30 AM 37.8294 -92.8964 37° Northeast 438 504 39,000 146 Level Kansas City Center
Wed 08:54:32 AM 37.9300 -92.8033 36° Northeast 442 509 39,300 439 Climbing Kansas City Center
Wed 08:55:33 AM 38.0439 -92.6944 37° Northeast 441 507 39,900 341 Climbing Kansas City Center
Wed 08:56:35 AM 38.1425 -92.6017 36° Northeast 442 509 40,000 49 Climbing Kansas City Center
Wed 08:57:36 AM 38.2514 -92.4997 36° Northeast 446 513 40,000  Level Kansas City Center
Wed 08:58:38 AM 38.3519 -92.4050 36° Northeast 446 513 40,000  Level Kansas City Center
Wed 08:59:41 AM 38.4517 -92.3086 37° Northeast 446 513 40,000  Level Kansas City Center
Wed 09:00:42 AM 38.5514 -92.2122 37° Northeast 446 513 40,000  Level Kansas City Center
Wed 09:01:43 AM 38.6514 -92.1161 37° Northeast 447 514 40,000  Level Kansas City Center
Wed 09:02:45 AM 38.7522 -92.0186 37° Northeast 449 517 40,000  Level Kansas City Center
Wed 09:03:46 AM 38.8533 -91.9222 37° Northeast 451 519 40,000  Level Kansas City Center
Wed 09:04:48 AM 38.9536 -91.8253 37° Northeast 451 519 40,000  Level Kansas City Center
Wed 09:05:49 AM 39.0553 -91.7275 37° Northeast 453 521 40,000  Level Kansas City Center
Wed 09:06:51 AM 39.1631 -91.6214 37° Northeast 455 524 40,000 -195 Level Kansas City Center
Wed 09:07:52 AM 39.2656 -91.5228 37° Northeast 458 527 39,600 -537 Descending Kansas City Center
Wed 09:08:54 AM 39.3667 -91.4222 38° Northeast 459 528 38,900 -677 Descending Kansas City Center
Wed 09:09:56 AM 39.4647 -91.3239 38° Northeast 451 519 38,200 -683 Descending Kansas City Center
Wed 09:10:57 AM 39.5622 -91.2289 37° Northeast 444 511 37,500 -732 Descending Kansas City Center
Wed 09:11:59 AM 39.6767 -91.1150 37° Northeast 435 501 36,700 -732 Descending Kansas City Center
Wed 09:13:00 AM 39.7603 -91.0303 38° Northeast 425 489 36,000 -732 Descending Kansas City Center
Wed 09:14:02 AM 39.8636 -90.9267 38° Northeast 417 480 35,200 -732 Descending Kansas City Center
Wed 09:15:03 AM 39.9556 -90.8353 37° Northeast 416 479 34,500 -683 Descending Kansas City Center
Wed 09:16:05 AM 40.0467 -90.7425 38° Northeast 416 479 33,800 -677 Descending Kansas City Center
Wed 09:17:07 AM 40.1375 -90.6478 39° Northeast 416 479 33,100 -623 Descending Kansas City Center
Wed 09:17:22 AM 40.1597 -90.6272 35° Northeast 421 484 33,000 -78 Descending Chicago Center
Wed 09:18:24 AM 40.2497 -90.5356 38° Northeast 418 481 33,000  Level Chicago Center
Wed 09:19:26 AM 40.3400 -90.4439 38° Northeast 412 474 33,000 -581 Level Chicago Center
Wed 09:20:28 AM 40.4492 -90.3317 38° Northeast 415 478 31,800 -1,065 Descending Chicago Center
Wed 09:21:30 AM 40.5464 -90.2556 31° Northeast 412 474 30,800 -1,016 Descending Chicago Center
Wed 09:22:32 AM 40.6681 -90.2500 North 405 466 29,700 -1,024 Descending Chicago Center
Wed 09:23:33 AM 40.7806 -90.2464 North 406 467 28,700 -976 Descending Chicago Center
Wed 09:24:35 AM 40.8750 -90.1869 25° Northeast 402 463 27,700 -1,016 Descending Chicago Center
Wed 09:25:37 AM 40.9392 -90.0544 57° Northeast 430 495 26,600 -919 Descending Chicago Center
Wed 09:26:39 AM 41.0053 -89.9158 58° Northeast 446 513 25,800 -871 Descending Chicago Center
Wed 09:27:41 AM 41.0731 -89.7742 58° Northeast 450 518 24,800 -919 Descending Chicago Center
Wed 09:28:43 AM 41.1383 -89.6392 57° Northeast 436 502 23,900 -1,548 Descending Chicago Center
Wed 09:29:45 AM 41.2067 -89.4750 61° Northeast 422 486 21,600 -2,112 Descending Chicago Center
Wed 09:30:48 AM 41.2603 -89.3444 61° Northeast 403 464 19,500 -1,968 Descending Chicago Center
Wed 09:31:50 AM 41.3122 -89.2158 62° Northeast 395 455 17,500 -1,935 Descending Chicago Center
Wed 09:32:52 AM 41.3575 -89.0992 63° Northeast 377 434 15,500 -2,032 Descending Chicago Center
Wed 09:33:54 AM 41.4147 -88.9567 62° Northeast 367 422 13,300 -1,839 Descending Chicago Center
Wed 09:34:56 AM 41.4606 -88.8411 62° Northeast 356 410 11,700 -1,113 Descending Chicago Center
Wed 09:35:58 AM 41.5061 -88.7242 62° Northeast 355 409 11,000 -339 Descending Chicago Center
Wed 09:37:00 AM 41.5519 -88.6086 62° Northeast 355 409 11,000  Level Chicago Center
Wed 09:38:02 AM 41.5978 -88.4939 62° Northeast 352 405 11,000  Level Chicago Center
Wed 09:39:04 AM 41.6539 -88.3900 54° Northeast 346 398 11,000  Level Chicago Center
Wed 09:40:06 AM 41.7250 -88.2681 52° Northeast 344 396 11,000  Level Chicago Center
Wed 09:41:08 AM 41.7842 -88.1669 52° Northeast 344 396 11,000 -387 Level Chicago Center
Wed 09:42:10 AM 41.8408 -88.0683 52° Northeast 334 384 10,200 -871 Descending Chicago Center
Wed 09:43:12 AM 41.8822 -87.9825 57° Northeast 279 321 9,200 -1,033 Descending Chicago Center
Wed 09:44:12 AM 41.8833 -87.8667 89° East 283 326 8,100 -1,000 Descending Chicago TRACON
Wed 09:45:24 AM 41.8833 -87.7667 90° East 209 241 7,000 -1,571 Descending Chicago TRACON
Wed 09:46:18 AM 41.9000 -87.7000 71° East 200 230 4,800 -1,895 Descending Chicago TRACON
Wed 09:47:18 AM 41.9500 -87.7167 346° North 192 221 3,400 -1,286 Descending Chicago TRACON
Wed 09:48:24 AM 41.9667 -87.7833 289° West 182 209 2,100 -1,182 Descending Chicago TRACON

Login

Don't have an account? Register now (free) for customized features, flight alerts, and more!